Time;durP1;ratioP1;P1;durP2;ratioP2;P2;SDS_P1;SDS_P2;PMS_P1;PMS_P2;Temp;Humidity;BMP_temperature;BMP_pressure;BME280_temperature;BME280_humidity;BME280_pressure;Samples;Min_cycle;Max_cycle;Signal;HPM_P1;HPM_P2
2022/11/27 00:01:11;;;;;;;10.57;5.22;;;;;;;-2.43;100.00;96704.50;5001750;28;20061;-77
2022/11/27 00:03:41;;;;;;;8.10;4.75;;;;;;;-2.40;100.00;96704.19;5009528;28;20039;-77
2022/11/27 00:06:10;;;;;;;10.85;5.25;;;;;;;-2.41;100.00;96702.59;5001082;28;20046;-77
2022/11/27 00:08:36;;;;;;;12.07;5.47;;;;;;;-2.51;100.00;96694.19;5006260;28;20042;-77
2022/11/27 00:11:13;;;;;;;9.93;4.97;;;;;;;-2.51;100.00;96696.75;5006038;28;20030;-77
2022/11/27 00:13:39;;;;;;;11.32;5.10;;;;;;;-2.46;100.00;96700.47;5012410;28;20050;-76
2022/11/27 00:16:06;;;;;;;12.52;5.70;;;;;;;-2.49;100.00;96700.78;5005550;28;20056;-77
2022/11/27 00:18:32;;;;;;;12.20;4.90;;;;;;;-2.49;100.00;96705.13;5005581;28;20397;-77
2022/11/27 00:21:06;;;;;;;10.45;5.07;;;;;;;-2.48;100.00;96709.34;5004639;28;20484;-75
2022/11/27 00:23:33;;;;;;;8.63;4.75;;;;;;;-2.46;100.00;96709.97;4994357;28;20038;-77
2022/11/27 00:25:58;;;;;;;11.43;4.85;;;;;;;-2.53;100.00;96716.72;5000655;28;20061;-76
2022/11/27 00:28:24;;;;;;;9.55;4.95;;;;;;;-2.63;100.00;96709.94;5009882;28;20126;-76
2022/11/27 00:30:49;;;;;;;11.25;5.32;;;;;;;-2.58;100.00;96711.25;5004784;28;20045;-76
2022/11/27 00:33:15;;;;;;;9.57;4.60;;;;;;;-2.53;100.00;96703.84;5008796;28;20049;-77
2022/11/27 00:35:41;;;;;;;8.90;4.53;;;;;;;-2.54;100.00;96702.22;5006926;28;20061;-77
2022/11/27 00:38:08;;;;;;;10.77;4.63;;;;;;;-2.66;100.00;96710.25;5001504;28;20141;-77
2022/11/27 00:40:34;;;;;;;6.97;4.05;;;;;;;-2.62;100.00;96698.66;5000429;28;20607;-76
2022/11/27 00:43:00;;;;;;;8.20;4.50;;;;;;;-2.59;100.00;96699.31;5000163;28;20052;-76
2022/11/27 00:45:26;;;;;;;9.32;4.15;;;;;;;-2.56;100.00;96684.31;4998747;28;20121;-76
2022/11/27 00:47:52;;;;;;;8.82;4.53;;;;;;;-2.64;100.00;96677.38;5005829;28;20111;-76
2022/11/27 00:50:17;;;;;;;8.98;4.38;;;;;;;-2.65;100.00;96674.97;5009790;28;20492;-76
2022/11/27 00:52:43;;;;;;;7.47;4.10;;;;;;;-2.67;100.00;96666.56;5008457;28;20073;-76
2022/11/27 00:55:08;;;;;;;7.50;3.78;;;;;;;-2.67;100.00;96658.84;4996233;28;20050;-76
2022/11/27 00:57:34;;;;;;;9.02;3.95;;;;;;;-2.64;100.00;96671.44;5006013;28;20046;-76
2022/11/27 00:59:59;;;;;;;9.45;4.50;;;;;;;-2.69;100.00;96669.31;5005231;28;20034;-76
2022/11/27 01:02:25;;;;;;;7.53;3.83;;;;;;;-2.67;100.00;96662.25;5001490;28;20042;-76
2022/11/27 01:04:51;;;;;;;7.93;4.15;;;;;;;-2.67;100.00;96671.72;4992760;28;20062;-76
2022/11/27 01:07:16;;;;;;;7.80;3.83;;;;;;;-2.72;100.00;96669.63;4993883;28;20121;-76
2022/11/27 01:09:42;;;;;;;8.70;4.45;;;;;;;-2.80;100.00;96657.53;5001477;28;20073;-77
2022/11/27 01:12:07;;;;;;;7.05;4.18;;;;;;;-2.79;100.00;96660.91;5009466;28;20095;-76
2022/11/27 01:14:34;;;;;;;8.70;4.18;;;;;;;-2.76;100.00;96652.06;4998256;28;20042;-76
2022/11/27 01:16:59;;;;;;;8.82;4.35;;;;;;;-2.81;100.00;96649.97;4993840;28;20515;-77
2022/11/27 01:19:25;;;;;;;9.63;3.95;;;;;;;-2.86;100.00;96662.50;5005363;28;20045;-77
2022/11/27 01:21:51;;;;;;;6.65;3.90;;;;;;;-2.90;100.00;96656.03;5004631;28;20042;-77
2022/11/27 01:24:17;;;;;;;9.70;4.63;;;;;;;-2.88;100.00;96638.69;5004931;28;20065;-77
2022/11/27 01:26:43;;;;;;;7.72;3.80;;;;;;;-2.83;100.00;96647.56;5007828;28;20400;-77
2022/11/27 01:29:09;;;;;;;10.68;4.20;;;;;;;-2.91;100.00;96650.09;4998372;28;20042;-76
2022/11/27 01:31:35;;;;;;;6.95;3.95;;;;;;;-2.93;100.00;96654.63;4996299;28;20046;-77
2022/11/27 01:34:04;;;;;;;8.82;3.90;;;;;;;-2.94;100.00;96653.00;4995032;28;20679;-76
2022/11/27 01:36:30;;;;;;;8.10;4.15;;;;;;;-2.96;100.00;96653.16;5007645;28;20500;-77
2022/11/27 01:38:56;;;;;;;7.40;3.80;;;;;;;-2.98;100.00;96644.75;5005454;28;20488;-77
2022/11/27 01:41:25;;;;;;;8.05;3.88;;;;;;;-2.99;100.00;96638.00;5008562;28;20069;-77
2022/11/27 01:43:53;;;;;;;9.23;4.22;;;;;;;-2.99;100.00;96643.16;5010148;28;20116;-77
2022/11/27 01:46:38;;;;;;;6.30;3.60;;;;;;;-3.10;100.00;96640.88;5008850;28;20488;-76
2022/11/27 01:49:09;;;;;;;;;;;;;;;-3.03;100.00;96644.44;4996493;28;20042;-77
2022/11/27 01:51:38;;;;;;;7.50;3.47;;;;;;;-3.15;100.00;96643.09;5006240;28;19980;-76
2022/11/27 01:54:04;;;;;;;6.72;3.28;;;;;;;-3.19;100.00;96636.63;5008637;28;20038;-77
2022/11/27 01:56:30;;;;;;;7.75;4.07;;;;;;;-3.21;100.00;96638.56;4999138;28;20412;-78
2022/11/27 01:58:57;;;;;;;7.57;3.72;;;;;;;-3.24;100.00;96638.88;5008795;28;20053;-76
2022/11/27 02:01:24;;;;;;;9.32;3.92;;;;;;;-3.22;100.00;96649.81;5007009;28;20041;-77
2022/11/27 02:03:52;;;;;;;9.82;4.20;;;;;;;-3.27;100.00;96645.13;5009108;28;20120;-77
2022/11/27 02:06:18;;;;;;;8.13;4.00;;;;;;;-3.34;100.00;96634.63;5003107;28;20481;-77
2022/11/27 02:08:44;;;;;;;9.30;4.57;;;;;;;-3.46;100.00;96635.88;5000484;28;20050;-77
2022/11/27 02:11:18;;;;;;;8.85;4.18;;;;;;;-3.49;100.00;96633.63;5001577;28;20046;-77
2022/11/27 02:14:17;;;;;;;8.55;4.70;;;;;;;-3.42;100.00;96637.19;4997223;28;20040;-77
2022/11/27 02:17:05;;;;;;;10.82;4.18;;;;;;;-3.44;100.00;96633.16;4996876;28;20057;-76
2022/11/27 02:19:30;;;;;;;11.00;4.45;;;;;;;-3.44;100.00;96628.00;5000692;28;20046;-77
2022/11/27 02:22:09;;;;;;;7.22;3.85;;;;;;;-3.44;100.00;96623.66;5018163;28;20183;-76
2022/11/27 02:25:01;;;;;;;6.82;3.75;;;;;;;-3.39;100.00;96613.72;5027323;28;20053;-77
2022/11/27 02:27:39;;;;;;;13.98;4.05;;;;;;;-3.49;100.00;96605.31;5001411;28;20041;-77
2022/11/27 02:30:05;;;;;;;7.55;4.03;;;;;;;-3.53;100.00;96607.38;5013825;28;20050;-77
2022/11/27 02:32:38;;;;;;;11.65;5.10;;;;;;;-3.53;100.00;96598.84;5007739;28;20527;-77
2022/11/27 02:35:21;;;;;;;13.52;4.28;;;;;;;-3.51;100.00;96591.78;4997345;28;20081;-77
2022/11/27 02:37:54;;;;;;;7.55;4.32;;;;;;;-3.49;100.00;96595.00;5009104;28;20053;-76
2022/11/27 02:40:29;;;;;;;9.27;4.05;;;;;;;-3.55;100.00;96595.59;5005643;28;20492;-76
2022/11/27 02:43:04;;;;;;;11.45;3.90;;;;;;;-3.59;100.00;96589.16;4998391;28;20041;-76
2022/11/27 02:45:35;;;;;;;10.02;4.82;;;;;;;-3.68;100.00;96591.72;5004208;28;20523;-76
2022/11/27 02:48:02;;;;;;;10.55;4.30;;;;;;;-3.68;100.00;96586.56;4996850;28;20038;-76
2022/11/27 02:50:31;;;;;;;11.75;5.00;;;;;;;-3.68;100.00;96591.72;5006720;28;20421;-76
2022/11/27 02:53:04;;;;;;;9.77;4.75;;;;;;;-3.68;100.00;96578.84;5002692;28;20124;-76
2022/11/27 02:55:33;;;;;;;9.07;4.50;;;;;;;-3.64;100.00;96581.09;4999062;28;20543;-76
2022/11/27 02:58:02;;;;;;;13.25;5.28;;;;;;;-3.73;100.00;96573.34;5008132;28;20054;-75
2022/11/27 03:00:29;;;;;;;13.20;4.55;;;;;;;-3.69;100.00;96574.66;5001585;28;20121;-75
2022/11/27 03:03:00;;;;;;;12.80;5.38;;;;;;;-3.68;100.00;96568.56;4999714;28;20050;-75
2022/11/27 03:05:29;;;;;;;8.82;4.10;;;;;;;-3.70;100.00;96556.78;4993025;28;20082;-75
2022/11/27 03:08:03;;;;;;;10.07;4.55;;;;;;;-3.73;100.00;96551.97;5002239;28;20057;-76
2022/11/27 03:10:34;;;;;;;12.63;4.95;;;;;;;-3.72;100.00;96543.25;5005118;28;20041;-75
2022/11/27 03:13:02;;;;;;;12.07;4.65;;;;;;;-3.77;100.00;96546.31;5003015;28;20042;-75
2022/11/27 03:15:38;;;;;;;8.18;4.55;;;;;;;-3.73;100.00;96547.63;5008212;28;20483;-74
2022/11/27 03:18:21;;;;;;;11.60;5.38;;;;;;;-3.78;100.00;96552.41;5000886;28;20569;-75
2022/11/27 03:20:52;;;;;;;11.20;4.50;;;;;;;-3.76;100.00;96553.06;5008150;28;20045;-75
2022/11/27 03:23:18;;;;;;;11.32;4.72;;;;;;;-3.78;100.00;96543.88;4991129;28;20042;-75
2022/11/27 03:25:44;;;;;;;11.07;4.32;;;;;;;-3.77;100.00;96545.50;4999550;28;20048;-74
2022/11/27 03:28:12;;;;;;;9.15;4.25;;;;;;;-3.80;100.00;96540.69;5000497;28;20053;-75
2022/11/27 03:30:39;;;;;;;11.63;4.70;;;;;;;-3.80;100.00;96541.47;4991458;28;20050;-75
2022/11/27 03:33:05;;;;;;;10.50;4.63;;;;;;;-3.82;100.00;96538.25;5005000;28;20368;-75
2022/11/27 03:35:31;;;;;;;11.80;4.88;;;;;;;-3.85;100.00;96533.41;4994081;28;20061;-75
2022/11/27 03:37:57;;;;;;;12.55;4.55;;;;;;;-3.91;100.00;96534.00;5008856;28;20129;-75
2022/11/27 03:40:28;;;;;;;9.38;4.45;;;;;;;-3.85;100.00;96520.53;5007254;28;20046;-74
2022/11/27 03:43:13;;;;;;;12.07;4.97;;;;;;;-3.85;100.00;96523.09;5005156;28;20038;-75
2022/11/27 03:46:03;;;;;;;8.70;4.55;;;;;;;-3.94;100.00;96521.47;4995226;28;20043;-75
2022/11/27 03:48:41;;;;;;;10.23;4.28;;;;;;;-3.96;100.00;96520.81;4997612;28;20065;-75
2022/11/27 03:51:12;;;;;;;13.10;4.55;;;;;;;-3.99;100.00;96521.94;5008914;28;20581;-75
2022/11/27 03:53:55;;;;;;;12.23;5.18;;;;;;;-4.02;100.00;96517.91;5006028;28;20502;-75
2022/11/27 03:56:35;;;;;;;11.57;5.28;;;;;;;-4.01;100.00;96519.50;5010055;28;20046;-75
2022/11/27 03:59:06;;;;;;;13.43;5.10;;;;;;;-4.05;100.00;96515.63;5010485;28;20042;-75
2022/11/27 04:01:32;;;;;;;10.55;5.07;;;;;;;-4.02;100.00;96515.31;5005021;28;20041;-75
2022/11/27 04:03:58;;;;;;;14.30;5.88;;;;;;;-4.02;100.00;96510.19;5000309;28;20492;-76
2022/11/27 04:06:24;;;;;;;13.32;5.07;;;;;;;-4.05;100.00;96512.22;5004348;28;20076;-75
2022/11/27 04:08:49;;;;;;;11.23;4.88;;;;;;;-4.15;100.00;96512.38;5006643;28;20042;-76
2022/11/27 04:11:15;;;;;;;12.60;5.25;;;;;;;-4.12;100.00;96522.34;5009776;28;20443;-75
2022/11/27 04:13:40;;;;;;;17.13;6.10;;;;;;;-4.07;100.00;96519.31;5010096;28;20041;-76
2022/11/27 04:16:06;;;;;;;17.20;5.90;;;;;;;-4.13;100.00;96525.88;5005567;28;20046;-76
2022/11/27 04:18:32;;;;;;;15.32;5.93;;;;;;;-4.17;100.00;96527.13;4995511;28;20034;-74
2022/11/27 04:20:58;;;;;;;15.40;6.25;;;;;;;-4.26;100.00;96515.19;5005924;28;20102;-76
2022/11/27 04:23:23;;;;;;;18.90;6.40;;;;;;;-4.26;100.00;96515.97;5011431;28;20042;-75
2022/11/27 04:25:49;;;;;;;16.52;5.80;;;;;;;-4.22;100.00;96519.06;5002267;28;20049;-75
2022/11/27 04:28:16;;;;;;;15.32;6.55;;;;;;;-4.23;100.00;96525.16;5004454;28;20443;-76
2022/11/27 04:30:43;;;;;;;16.83;6.28;;;;;;;-4.22;100.00;96521.66;4998490;28;20050;-76
2022/11/27 04:33:08;;;;;;;15.43;6.20;;;;;;;-4.23;100.00;96520.03;5002012;28;20083;-76
2022/11/27 04:35:34;;;;;;;13.68;5.43;;;;;;;-4.29;100.00;96525.78;5012142;28;20049;-75
2022/11/27 04:37:59;;;;;;;15.57;5.80;;;;;;;-4.28;100.00;96532.50;5004988;28;20053;-75
2022/11/27 04:40:25;;;;;;;11.77;4.88;;;;;;;-4.25;100.00;96517.59;4997152;28;20045;-76
2022/11/27 04:42:50;;;;;;;16.25;6.35;;;;;;;-4.26;100.00;96515.19;4994260;28;20480;-76
2022/11/27 04:45:16;;;;;;;15.88;6.22;;;;;;;-4.32;100.00;96510.63;5006089;28;20392;-76
2022/11/27 04:47:42;;;;;;;13.55;5.80;;;;;;;-4.38;100.00;96502.59;5002925;28;20043;-76
2022/11/27 04:50:08;;;;;;;16.58;6.18;;;;;;;-4.37;100.00;96509.34;5009307;28;20046;-76
2022/11/27 04:52:34;;;;;;;16.20;5.50;;;;;;;-4.39;100.00;96521.53;5006439;28;20092;-76
2022/11/27 04:54:59;;;;;;;12.70;5.32;;;;;;;-4.31;100.00;96512.25;4999760;28;20045;-76
2022/11/27 04:57:25;;;;;;;13.27;5.68;;;;;;;-4.26;100.00;96515.19;5007677;28;20111;-76
2022/11/27 04:59:50;;;;;;;20.10;5.75;;;;;;;-4.32;100.00;96513.19;5006626;28;20038;-76
2022/11/27 05:02:16;;;;;;;11.82;5.13;;;;;;;-4.38;100.00;96515.44;4995681;28;20177;-75
2022/11/27 05:04:41;;;;;;;10.85;5.35;;;;;;;-4.35;100.00;96527.97;5008133;28;20038;-76
2022/11/27 05:07:07;;;;;;;14.05;5.40;;;;;;;-4.35;100.00;96522.84;5007677;28;20048;-76
2022/11/27 05:09:32;;;;;;;12.98;4.93;;;;;;;-4.41;100.00;96523.44;5003093;28;20046;-76
2022/11/27 05:11:58;;;;;;;9.95;5.03;;;;;;;-4.40;100.00;96522.47;5010596;28;20112;-76
2022/11/27 05:14:28;;;;;;;13.05;5.60;;;;;;;-4.37;100.00;96519.63;5007537;28;20050;-75
2022/11/27 05:16:58;;;;;;;10.05;4.93;;;;;;;-4.40;100.00;96525.03;5000936;28;20042;-76
2022/11/27 05:19:26;;;;;;;13.73;5.00;;;;;;;-4.46;100.00;96520.50;5000419;28;20048;-76
2022/11/27 05:21:53;;;;;;;17.73;4.63;;;;;;;-4.55;100.00;96521.41;5007682;28;20056;-76
2022/11/27 05:24:20;;;;;;;11.27;4.63;;;;;;;-4.63;100.00;96508.50;5008306;28;20100;-76
2022/11/27 05:26:46;;;;;;;11.48;5.25;;;;;;;-4.70;100.00;96509.09;5018916;28;20037;-75
2022/11/27 05:29:13;;;;;;;12.07;5.45;;;;;;;-4.65;100.00;96507.84;5004997;28;20038;-76
2022/11/27 05:31:39;;;;;;;8.75;4.68;;;;;;;-4.56;100.00;96506.94;5001727;28;20037;-76
2022/11/27 05:34:05;;;;;;;11.13;5.03;;;;;;;-4.61;100.00;96511.72;5000670;28;20047;-76
2022/11/27 05:36:32;;;;;;;12.07;4.70;;;;;;;-4.55;100.00;96511.94;5004833;28;20042;-76
2022/11/27 05:38:59;;;;;;;9.13;4.32;;;;;;;-4.50;100.00;96529.47;5008156;28;20042;-76
2022/11/27 05:41:25;;;;;;;14.10;4.40;;;;;;;-4.52;100.00;96521.13;4997638;28;20058;-76
2022/11/27 05:43:50;;;;;;;11.18;4.80;;;;;;;-4.53;100.00;96514.34;5001328;28;20034;-76
2022/11/27 05:46:18;;;;;;;15.77;4.70;;;;;;;-4.53;100.00;96509.22;4999549;28;20042;-75
2022/11/27 05:48:44;;;;;;;8.55;4.45;;;;;;;-4.54;100.00;96507.59;4995473;28;20658;-76
2022/11/27 05:51:10;;;;;;;8.73;4.38;;;;;;;-4.63;100.00;96498.22;5006326;28;20042;-76
2022/11/27 05:53:35;;;;;;;8.10;3.95;;;;;;;-4.68;100.00;96495.28;5002401;28;20042;-76
2022/11/27 05:56:03;;;;;;;5.97;3.42;;;;;;;-4.64;100.00;96504.31;5006179;28;20120;-76
2022/11/27 05:58:29;;;;;;;8.57;4.00;;;;;;;-4.61;100.00;96498.88;4999622;28;20046;-76
2022/11/27 06:00:55;;;;;;;7.28;3.78;;;;;;;-4.61;100.00;96501.44;5004278;28;20495;-76
2022/11/27 06:03:20;;;;;;;9.23;4.20;;;;;;;-4.65;100.00;96495.03;5001408;28;20489;-76
2022/11/27 06:05:46;;;;;;;7.57;3.80;;;;;;;-4.65;100.00;96489.88;4991585;28;20042;-76
2022/11/27 06:08:11;;;;;;;9.73;4.60;;;;;;;-4.74;100.00;96492.38;4998112;28;20041;-75
2022/11/27 06:10:38;;;;;;;10.70;3.95;;;;;;;-4.77;100.00;96497.81;4999327;28;20034;-76
2022/11/27 06:13:04;;;;;;;11.70;4.70;;;;;;;-4.84;100.00;96494.22;5000957;28;20053;-75
2022/11/27 06:15:30;;;;;;;10.48;4.53;;;;;;;-4.84;100.00;96501.94;4999130;28;20042;-76
2022/11/27 06:17:55;;;;;;;7.82;3.95;;;;;;;-4.79;100.00;96504.84;5006198;28;20038;-76
2022/11/27 06:20:21;;;;;;;7.38;4.05;;;;;;;-4.75;100.00;96495.91;4991907;28;20062;-76
2022/11/27 06:22:46;;;;;;;9.63;4.18;;;;;;;-4.79;100.00;96486.06;5006550;28;20041;-76
2022/11/27 06:25:12;;;;;;;8.52;4.65;;;;;;;-4.79;100.00;96489.44;5007465;28;20066;-76
2022/11/27 06:27:38;;;;;;;12.32;4.85;;;;;;;-4.74;100.00;96492.38;5002321;28;20049;-75
2022/11/27 06:30:04;;;;;;;8.40;4.05;;;;;;;-4.73;100.00;96488.84;4997666;28;20145;-76
2022/11/27 06:32:30;;;;;;;10.63;4.25;;;;;;;-4.68;100.00;96490.16;5005368;28;20061;-76
2022/11/27 06:34:56;;;;;;;7.90;3.58;;;;;;;-4.63;100.00;96493.88;5000268;28;20060;-75
2022/11/27 06:37:21;;;;;;;7.13;3.95;;;;;;;-4.72;100.00;96500.72;4994692;28;20499;-76
2022/11/27 06:39:48;;;;;;;8.65;3.58;;;;;;;-4.74;100.00;96497.50;5003316;28;20034;-76
2022/11/27 06:42:13;;;;;;;9.82;3.78;;;;;;;-4.77;100.00;96500.38;5004334;28;20504;-76
2022/11/27 06:44:39;;;;;;;13.02;4.18;;;;;;;-4.76;100.00;96494.28;4997123;28;20054;-76
2022/11/27 06:47:04;;;;;;;8.77;4.25;;;;;;;-4.74;100.00;96496.69;5003147;28;20047;-75
2022/11/27 06:49:31;;;;;;;9.00;4.00;;;;;;;-4.72;100.00;96492.22;4999157;28;20081;-76
2022/11/27 06:51:56;;;;;;;10.23;3.95;;;;;;;-4.78;100.00;96496.19;4997877;28;20077;-75
2022/11/27 06:54:22;;;;;;;9.50;4.55;;;;;;;-4.84;100.00;96496.78;4992219;28;20102;-76
2022/11/27 06:56:49;;;;;;;8.57;3.95;;;;;;;-4.83;100.00;96492.47;4996615;28;20042;-76
2022/11/27 06:59:15;;;;;;;7.82;4.30;;;;;;;-4.79;100.00;96494.56;4991374;28;20590;-75
2022/11/27 07:01:41;;;;;;;8.77;3.60;;;;;;;-4.80;100.00;96492.16;4999190;28;20042;-77
2022/11/27 07:04:13;;;;;;;8.15;3.80;;;;;;;-4.73;100.00;96482.91;5008004;28;20030;-76
2022/11/27 07:06:41;;;;;;;9.35;3.20;;;;;;;-4.73;100.00;96483.69;5005313;28;20257;-76
2022/11/27 07:09:07;;;;;;;5.93;3.25;;;;;;;-4.66;100.00;96483.13;5008534;28;20049;-76
2022/11/27 07:11:33;;;;;;;13.32;4.07;;;;;;;-4.64;100.00;96483.75;5005713;28;20038;-77
2022/11/27 07:14:01;;;;;;;8.00;3.83;;;;;;;-4.64;100.00;96486.34;5010082;28;20042;-76
2022/11/27 07:16:29;;;;;;;7.85;3.95;;;;;;;-4.66;100.00;96485.69;5002401;28;20069;-75
2022/11/27 07:18:58;;;;;;;8.23;3.72;;;;;;;-4.67;100.00;96476.38;5005965;28;20038;-75
2022/11/27 07:21:24;;;;;;;9.57;4.53;;;;;;;-4.66;100.00;96480.56;5000282;28;20121;-75
2022/11/27 07:23:50;;;;;;;6.45;3.80;;;;;;;-4.67;100.00;96481.50;4998497;28;20554;-73
2022/11/27 07:26:21;;;;;;;8.32;3.80;;;;;;;-4.60;100.00;96482.50;5007104;28;20046;-75
2022/11/27 07:28:47;;;;;;;10.10;4.72;;;;;;;-4.49;100.00;96474.56;5007511;28;20038;-74
2022/11/27 07:31:19;;;;;;;9.85;4.18;;;;;;;-4.49;100.00;96474.56;5006411;28;20046;-74
2022/11/27 07:33:45;;;;;;;9.38;4.03;;;;;;;-4.42;100.00;96470.44;4991546;28;20046;-75
2022/11/27 07:36:18;;;;;;;9.70;4.88;;;;;;;-4.37;100.00;96463.09;4990526;28;20043;-72
2022/11/27 07:38:45;;;;;;;12.48;3.92;;;;;;;-4.29;100.00;96471.81;4990593;28;20043;-73
2022/11/27 07:41:11;;;;;;;6.95;3.83;;;;;;;-4.26;100.00;96468.91;4999863;28;20046;-72
2022/11/27 07:43:38;;;;;;;10.55;4.00;;;;;;;-4.20;100.00;96463.16;4997794;28;20503;-74
2022/11/27 07:46:09;;;;;;;8.50;4.10;;;;;;;-4.11;100.00;96462.22;4990590;28;20073;-73
2022/11/27 07:48:34;;;;;;;10.30;4.68;;;;;;;-4.05;100.00;96455.66;4993037;28;20053;-74
2022/11/27 07:51:00;;;;;;;10.80;4.78;;;;;;;-3.99;100.00;96447.34;5004415;28;20579;-75
2022/11/27 07:53:26;;;;;;;12.18;4.75;;;;;;;-3.93;100.00;96454.44;5012944;28;20416;-74
2022/11/27 07:55:51;;;;;;;10.40;4.53;;;;;;;-3.93;100.00;96453.66;5003435;28;20039;-75
2022/11/27 07:58:17;;;;;;;10.05;4.53;;;;;;;-3.88;100.00;96446.25;4990269;28;20070;-73
2022/11/27 08:00:42;;;;;;;13.65;5.88;;;;;;;-3.80;100.00;96454.00;5001277;28;20038;-74
2022/11/27 08:03:09;;;;;;;8.10;4.28;;;;;;;-3.75;100.00;96451.78;4997053;28;20496;-73
2022/11/27 08:05:36;;;;;;;8.93;4.47;;;;;;;-3.61;100.00;96457.28;5001903;28;20045;-72
2022/11/27 08:08:03;;;;;;;11.98;5.70;;;;;;;-3.47;100.00;96459.25;5000335;28;20096;-75
2022/11/27 08:10:36;;;;;;;11.73;5.65;;;;;;;-3.47;100.00;96456.69;4993413;28;20038;-72
2022/11/27 08:13:03;;;;;;;13.43;5.93;;;;;;;-3.38;100.00;96460.88;5004192;28;20038;-77
2022/11/27 08:15:28;;;;;;;14.32;6.50;;;;;;;-3.27;100.00;96453.84;4990628;28;20038;-74
2022/11/27 08:17:54;;;;;;;16.92;7.72;;;;;;;-2.96;100.00;96441.94;4993547;28;20057;-74
2022/11/27 08:20:19;;;;;;;19.30;8.25;;;;;;;-2.72;100.00;96442.09;4990672;28;20508;-74
2022/11/27 08:22:45;;;;;;;21.45;9.85;;;;;;;-2.54;100.00;96434.16;5003136;28;20482;-74
2022/11/27 08:25:11;;;;;;;24.25;10.05;;;;;;;-2.33;100.00;96434.47;5012470;28;20436;-73
2022/11/27 08:27:39;;;;;;;32.38;12.50;;;;;;;-2.23;100.00;96430.88;5022081;28;20387;-73
2022/11/27 08:30:05;;;;;;;33.65;12.23;;;;;;;-2.05;100.00;96428.88;5006117;28;20061;-73
2022/11/27 08:32:31;;;;;;;35.40;12.68;;;;;;;-1.96;100.00;96433.03;4998656;28;20043;-77
2022/11/27 08:34:56;;;;;;;28.75;11.43;;;;;;;-1.84;100.00;96430.09;4996235;28;20408;-78
2022/11/27 08:37:22;;;;;;;32.50;12.50;;;;;;;-1.77;100.00;96423.28;5011043;28;20069;-75
2022/11/27 08:39:47;;;;;;;29.55;11.45;;;;;;;-1.72;100.00;96418.41;5011788;28;20041;-75
2022/11/27 08:42:13;;;;;;;29.77;12.32;;;;;;;-1.71;100.00;96420.03;5001358;28;20038;-75
2022/11/27 08:44:39;;;;;;;31.25;12.15;;;;;;;-1.65;100.00;96419.34;4996299;28;20474;-75
2022/11/27 08:47:04;;;;;;;27.88;11.25;;;;;;;-1.62;100.00;96428.53;5005945;28;20117;-75
2022/11/27 08:49:30;;;;;;;24.77;10.38;;;;;;;-1.62;100.00;96434.50;5010334;28;20045;-74
2022/11/27 08:51:56;;;;;;;21.52;9.10;;;;;;;-1.57;100.00;96427.06;5008748;28;20042;-75
2022/11/27 08:54:21;;;;;;;22.65;9.38;;;;;;;-1.51;100.00;96429.91;5013059;28;20037;-75
2022/11/27 08:56:47;;;;;;;18.45;8.18;;;;;;;-1.34;100.00;96430.63;5003522;28;20052;-74
2022/11/27 08:59:12;;;;;;;13.90;7.20;;;;;;;-1.04;100.00;96426.38;5003278;28;20050;-74
2022/11/27 09:01:38;;;;;;;17.80;7.03;;;;;;;-0.90;100.00;96424.81;5007353;28;20046;-75
2022/11/27 09:04:03;;;;;;;14.32;6.50;;;;;;;-0.87;100.00;96422.69;5011086;28;20060;-75
2022/11/27 09:06:32;;;;;;;13.80;6.47;;;;;;;-0.82;100.00;96423.94;5016031;28;20108;-74
2022/11/27 09:09:02;;;;;;;16.27;6.95;;;;;;;-0.56;100.00;96414.03;4993113;28;20038;-73
2022/11/27 09:11:29;;;;;;;12.73;6.35;;;;;;;-0.61;100.00;96413.72;5002934;28;20061;-73
2022/11/27 09:13:55;;;;;;;12.63;6.78;;;;;;;-0.40;100.00;96407.09;5003504;28;20057;-74
2022/11/27 09:16:21;;;;;;;12.70;6.03;;;;;;;-0.38;100.00;96405.09;5001148;28;20052;-73
2022/11/27 09:18:49;;;;;;;11.55;5.90;;;;;;;-0.43;100.00;96402.25;5003525;28;20121;-73
2022/11/27 09:21:17;;;;;;;14.18;6.18;;;;;;;-0.46;100.00;96407.78;4997176;28;20527;-74
2022/11/27 09:23:42;;;;;;;10.93;5.95;;;;;;;-0.42;100.00;96403.84;5011943;28;20044;-74
2022/11/27 09:26:13;;;;;;;13.57;6.43;;;;;;;-0.28;100.00;96400.47;5008030;28;20038;-74
2022/11/27 09:28:40;;;;;;;12.40;6.88;;;;;;;-0.15;100.00;96399.06;5008979;28;20454;-75
2022/11/27 09:31:07;;;;;;;12.43;6.53;;;;;;;0.18;100.00;96399.44;5001029;28;20046;-75
2022/11/27 09:33:35;;;;;;;13.13;7.15;;;;;;;0.65;100.00;96402.53;5000635;28;20038;-75
2022/11/27 09:36:06;;;;;;;14.85;6.93;;;;;;;1.77;100.00;96392.41;4999722;28;20049;-75
2022/11/27 09:38:32;;;;;;;10.55;6.40;;;;;;;3.52;100.00;96389.16;5003185;28;20039;-77
2022/11/27 09:41:21;;;;;;;10.55;5.75;;;;;;;4.74;100.00;96385.88;5004182;28;20492;-77
2022/11/27 09:43:58;;;;;;;10.45;5.32;;;;;;;5.14;100.00;96370.75;5007874;28;20069;-78
2022/11/27 09:46:30;;;;;;;11.57;5.38;;;;;;;5.27;100.00;96382.91;5003279;28;20053;-83
2022/11/27 09:48:57;;;;;;;9.80;5.78;;;;;;;5.01;100.00;96365.63;5011719;28;20049;-78
2022/11/27 09:51:32;;;;;;;12.20;6.65;;;;;;;5.15;100.00;96355.91;5009744;28;20503;-78
2022/11/27 09:54:24;;;;;;;12.82;6.40;;;;;;;6.07;100.00;96353.38;5010313;28;20101;-78
2022/11/27 09:56:53;;;;;;;13.55;6.78;;;;;;;5.84;100.00;96345.38;5003578;28;20080;-78
2022/11/27 09:59:22;;;;;;;13.52;7.07;;;;;;;6.19;100.00;96350.84;5009452;28;20048;-79
2022/11/27 10:01:49;;;;;;;16.55;7.43;;;;;;;6.51;100.00;96336.75;5010645;28;20038;-78
2022/11/27 10:04:17;;;;;;;13.43;7.30;;;;;;;5.83;100.00;96330.72;4999915;28;20119;-79
2022/11/27 10:07:18;;;;;;;12.50;6.95;;;;;;;6.20;100.00;96336.72;4998259;28;20047;-78
2022/11/27 10:09:52;;;;;;;12.57;6.53;;;;;;;6.70;100.00;96330.44;4987723;28;20054;-78
2022/11/27 10:12:28;;;;;;;13.68;6.55;;;;;;;6.91;100.00;96320.44;5008081;28;20042;-78
2022/11/27 10:15:35;;;;;;;13.07;6.22;;;;;;;7.07;100.00;96319.00;4996360;28;20103;-80
2022/11/27 10:18:29;;;;;;;16.35;7.15;;;;;;;7.15;100.00;96310.00;5000011;28;20522;-78
2022/11/27 10:21:00;;;;;;;13.57;6.88;;;;;;;7.76;100.00;96306.06;5007250;28;20041;-79
2022/11/27 10:23:47;;;;;;;16.05;8.05;;;;;;;6.46;100.00;96307.84;5001665;28;20049;-79
2022/11/27 10:26:19;;;;;;;12.85;6.60;;;;;;;6.59;100.00;96312.88;5010692;28;20117;-78
2022/11/27 10:28:58;;;;;;;15.38;6.78;;;;;;;7.51;100.00;96297.69;5008225;28;20042;-79
2022/11/27 10:31:29;;;;;;;15.52;6.25;;;;;;;8.14;100.00;96294.22;5004503;28;20034;-77
2022/11/27 10:34:01;;;;;;;14.35;6.68;;;;;;;7.90;100.00;96279.59;5009855;28;20042;-77
2022/11/27 10:36:38;;;;;;;15.07;6.57;;;;;;;7.27;100.00;96277.56;5003883;28;20073;-79
2022/11/27 10:39:10;;;;;;;13.52;6.90;;;;;;;8.23;100.00;96278.13;5003705;28;20092;-86
2022/11/27 10:41:47;;;;;;;13.88;6.55;;;;;;;8.76;100.00;96282.19;4999726;28;20066;-80
2022/11/27 10:44:26;;;;;;;14.10;6.38;;;;;;;9.08;100.00;96273.75;5011368;28;20050;-80
2022/11/27 10:46:55;;;;;;;13.23;6.68;;;;;;;9.60;100.00;96277.06;5010615;28;20123;-79
2022/11/27 10:49:21;;;;;;;15.38;7.18;;;;;;;10.13;100.00;96275.56;5010193;28;20038;-77
2022/11/27 10:51:46;;;;;;;13.90;6.97;;;;;;;10.02;100.00;96272.03;5008745;28;20053;-79
2022/11/27 10:54:29;;;;;;;18.13;9.30;;;;;;;9.27;94.78;96260.34;5012249;28;20065;-79
2022/11/27 10:57:23;;;;;;;13.23;7.10;;;;;;;10.14;100.00;96257.94;5000808;28;20050;-79
2022/11/27 11:00:04;;;;;;;15.50;8.23;;;;;;;10.39;96.52;96260.84;4991912;28;20039;-78
2022/11/27 11:02:37;;;;;;;11.85;7.10;;;;;;;9.76;97.71;96262.28;4992760;28;20342;-76
2022/11/27 11:05:18;;;;;;;12.77;7.18;;;;;;;9.17;100.00;96261.78;5001233;28;20116;-76
2022/11/27 11:08:04;;;;;;;13.82;6.60;;;;;;;8.25;99.78;96260.34;5011769;28;20042;-75
2022/11/27 11:10:31;;;;;;;16.15;5.93;;;;;;;9.11;89.20;96254.09;5001018;28;20046;-75
2022/11/27 11:13:14;;;;;;;10.20;5.65;;;;;;;9.08;91.79;96258.00;4997488;28;20049;-75
2022/11/27 11:15:58;;;;;;;11.82;6.00;;;;;;;9.85;94.96;96261.59;5002213;28;20073;-76
2022/11/27 11:18:27;;;;;;;10.90;5.60;;;;;;;10.21;82.38;96259.34;5002617;28;20053;-75
2022/11/27 11:20:57;;;;;;;9.23;5.05;;;;;;;11.07;84.16;96243.75;5007599;28;20661;-75
2022/11/27 11:23:27;;;;;;;7.95;4.90;;;;;;;11.24;80.78;96252.28;5008884;28;20045;-78
2022/11/27 11:25:57;;;;;;;9.68;5.18;;;;;;;10.34;82.43;96254.75;4995098;28;20046;-77
2022/11/27 11:28:24;;;;;;;11.48;4.75;;;;;;;9.88;78.06;96261.13;4992179;28;20076;-76
2022/11/27 11:30:58;;;;;;;8.40;4.65;;;;;;;10.35;92.62;96253.72;5024688;28;20046;-77